sensor_id;sensor_type;location;lat;lon;timestamp;P1;durP1;ratioP1;P2;durP2;ratioP2
1703;SDS011;849;48.780;9.216;2023-04-22T00:01:21;7.53;;;0.30;;
1703;SDS011;849;48.780;9.216;2023-04-22T00:03:49;7.50;;;0.30;;
1703;SDS011;849;48.780;9.216;2023-04-22T00:06:15;7.50;;;0.30;;
1703;SDS011;849;48.780;9.216;2023-04-22T00:08:41;7.47;;;0.40;;
1703;SDS011;849;48.780;9.216;2023-04-22T00:11:07;7.43;;;0.40;;
1703;SDS011;849;48.780;9.216;2023-04-22T00:13:32;7.47;;;0.30;;
1703;SDS011;849;48.780;9.216;2023-04-22T00:15:58;7.43;;;0.30;;
1703;SDS011;849;48.780;9.216;2023-04-22T00:18:24;7.50;;;0.40;;
1703;SDS011;849;48.780;9.216;2023-04-22T00:20:50;7.57;;;0.30;;
1703;SDS011;849;48.780;9.216;2023-04-22T00:23:15;7.63;;;0.30;;
1703;SDS011;849;48.780;9.216;2023-04-22T00:25:41;7.63;;;0.30;;
1703;SDS011;849;48.780;9.216;2023-04-22T00:28:07;7.73;;;0.33;;
1703;SDS011;849;48.780;9.216;2023-04-22T00:30:34;7.83;;;0.30;;
1703;SDS011;849;48.780;9.216;2023-04-22T00:33:00;7.97;;;0.30;;
1703;SDS011;849;48.780;9.216;2023-04-22T00:35:25;7.97;;;0.30;;
1703;SDS011;849;48.780;9.216;2023-04-22T00:37:51;8.07;;;0.40;;
1703;SDS011;849;48.780;9.216;2023-04-22T00:40:17;8.13;;;0.30;;
1703;SDS011;849;48.780;9.216;2023-04-22T00:42:43;8.13;;;0.30;;
1703;SDS011;849;48.780;9.216;2023-04-22T00:45:09;8.27;;;0.30;;
1703;SDS011;849;48.780;9.216;2023-04-22T00:47:36;8.23;;;0.30;;
1703;SDS011;849;48.780;9.216;2023-04-22T00:50:03;8.33;;;0.30;;
1703;SDS011;849;48.780;9.216;2023-04-22T00:52:29;8.60;;;0.30;;
1703;SDS011;849;48.780;9.216;2023-04-22T00:54:55;8.53;;;0.30;;
1703;SDS011;849;48.780;9.216;2023-04-22T00:57:21;8.47;;;0.47;;
1703;SDS011;849;48.780;9.216;2023-04-22T00:59:46;8.53;;;0.40;;
1703;SDS011;849;48.780;9.216;2023-04-22T01:02:13;8.60;;;0.30;;
1703;SDS011;849;48.780;9.216;2023-04-22T01:04:39;9.60;;;2.73;;
1703;SDS011;849;48.780;9.216;2023-04-22T01:07:05;8.67;;;0.30;;
1703;SDS011;849;48.780;9.216;2023-04-22T01:09:31;8.73;;;0.40;;
1703;SDS011;849;48.780;9.216;2023-04-22T01:11:57;8.83;;;0.40;;
1703;SDS011;849;48.780;9.216;2023-04-22T01:14:23;8.83;;;0.30;;
1703;SDS011;849;48.780;9.216;2023-04-22T01:16:50;8.93;;;0.30;;
1703;SDS011;849;48.780;9.216;2023-04-22T01:19:18;9.13;;;0.37;;
1703;SDS011;849;48.780;9.216;2023-04-22T01:21:43;9.53;;;0.50;;
1703;SDS011;849;48.780;9.216;2023-04-22T01:24:11;9.67;;;0.90;;
1703;SDS011;849;48.780;9.216;2023-04-22T01:26:37;9.57;;;0.40;;
1703;SDS011;849;48.780;9.216;2023-04-22T01:29:03;9.57;;;0.40;;
1703;SDS011;849;48.780;9.216;2023-04-22T01:31:29;9.57;;;0.40;;
1703;SDS011;849;48.780;9.216;2023-04-22T01:33:55;9.57;;;0.30;;
1703;SDS011;849;48.780;9.216;2023-04-22T01:36:22;9.63;;;0.30;;
1703;SDS011;849;48.780;9.216;2023-04-22T01:38:48;9.67;;;0.30;;
1703;SDS011;849;48.780;9.216;2023-04-22T01:41:13;9.87;;;0.40;;
1703;SDS011;849;48.780;9.216;2023-04-22T01:43:40;9.90;;;0.60;;
1703;SDS011;849;48.780;9.216;2023-04-22T01:46:06;9.97;;;0.37;;
1703;SDS011;849;48.780;9.216;2023-04-22T01:48:33;10.07;;;0.30;;
1703;SDS011;849;48.780;9.216;2023-04-22T01:50:59;10.13;;;0.33;;
1703;SDS011;849;48.780;9.216;2023-04-22T01:53:25;10.17;;;0.40;;
1703;SDS011;849;48.780;9.216;2023-04-22T01:55:51;10.17;;;0.30;;
1703;SDS011;849;48.780;9.216;2023-04-22T01:58:17;10.33;;;0.40;;
1703;SDS011;849;48.780;9.216;2023-04-22T02:00:43;10.33;;;0.40;;
1703;SDS011;849;48.780;9.216;2023-04-22T02:03:09;10.23;;;0.30;;
1703;SDS011;849;48.780;9.216;2023-04-22T02:05:35;10.27;;;0.40;;
1703;SDS011;849;48.780;9.216;2023-04-22T02:08:02;10.33;;;0.37;;
1703;SDS011;849;48.780;9.216;2023-04-22T02:10:28;10.37;;;0.40;;
1703;SDS011;849;48.780;9.216;2023-04-22T02:12:54;10.43;;;0.40;;
1703;SDS011;849;48.780;9.216;2023-04-22T02:15:19;10.60;;;0.40;;
1703;SDS011;849;48.780;9.216;2023-04-22T02:17:47;10.60;;;0.40;;
1703;SDS011;849;48.780;9.216;2023-04-22T02:20:13;10.50;;;0.40;;
1703;SDS011;849;48.780;9.216;2023-04-22T02:22:39;10.43;;;0.37;;
1703;SDS011;849;48.780;9.216;2023-04-22T02:25:06;10.47;;;0.40;;
1703;SDS011;849;48.780;9.216;2023-04-22T02:27:32;10.63;;;0.30;;
1703;SDS011;849;48.780;9.216;2023-04-22T02:29:58;9.53;;;0.40;;
1703;SDS011;849;48.780;9.216;2023-04-22T02:32:24;9.63;;;0.33;;
1703;SDS011;849;48.780;9.216;2023-04-22T02:34:50;11.37;;;3.60;;
1703;SDS011;849;48.780;9.216;2023-04-22T02:37:15;9.80;;;0.40;;
1703;SDS011;849;48.780;9.216;2023-04-22T02:39:41;9.83;;;0.40;;
1703;SDS011;849;48.780;9.216;2023-04-22T02:42:07;10.03;;;1.10;;
1703;SDS011;849;48.780;9.216;2023-04-22T02:44:32;9.87;;;0.40;;
1703;SDS011;849;48.780;9.216;2023-04-22T02:46:58;9.83;;;0.30;;
1703;SDS011;849;48.780;9.216;2023-04-22T02:49:24;9.93;;;0.30;;
1703;SDS011;849;48.780;9.216;2023-04-22T02:51:50;10.03;;;0.37;;
1703;SDS011;849;48.780;9.216;2023-04-22T02:54:15;10.07;;;0.40;;
1703;SDS011;849;48.780;9.216;2023-04-22T02:56:41;10.07;;;0.30;;
1703;SDS011;849;48.780;9.216;2023-04-22T02:59:06;9.97;;;0.40;;
1703;SDS011;849;48.780;9.216;2023-04-22T03:01:32;10.07;;;0.30;;
1703;SDS011;849;48.780;9.216;2023-04-22T03:03:58;10.07;;;0.40;;
1703;SDS011;849;48.780;9.216;2023-04-22T03:06:23;10.27;;;0.40;;
1703;SDS011;849;48.780;9.216;2023-04-22T03:08:49;10.37;;;0.40;;
1703;SDS011;849;48.780;9.216;2023-04-22T03:11:15;10.37;;;0.30;;
1703;SDS011;849;48.780;9.216;2023-04-22T03:13:40;10.43;;;0.30;;
1703;SDS011;849;48.780;9.216;2023-04-22T03:16:06;10.63;;;0.40;;
1703;SDS011;849;48.780;9.216;2023-04-22T03:18:32;10.70;;;0.30;;
1703;SDS011;849;48.780;9.216;2023-04-22T03:20:57;10.67;;;0.40;;
1703;SDS011;849;48.780;9.216;2023-04-22T03:23:24;10.73;;;0.40;;
1703;SDS011;849;48.780;9.216;2023-04-22T03:25:50;10.83;;;0.40;;
1703;SDS011;849;48.780;9.216;2023-04-22T03:28:16;10.03;;;0.30;;
1703;SDS011;849;48.780;9.216;2023-04-22T03:30:42;10.17;;;0.40;;
1703;SDS011;849;48.780;9.216;2023-04-22T03:33:07;10.17;;;0.30;;
1703;SDS011;849;48.780;9.216;2023-04-22T03:35:33;10.33;;;0.33;;
1703;SDS011;849;48.780;9.216;2023-04-22T03:37:59;10.37;;;0.40;;
1703;SDS011;849;48.780;9.216;2023-04-22T03:40:24;10.43;;;0.37;;
1703;SDS011;849;48.780;9.216;2023-04-22T03:42:50;10.57;;;0.30;;
1703;SDS011;849;48.780;9.216;2023-04-22T03:45:16;10.67;;;0.40;;
1703;SDS011;849;48.780;9.216;2023-04-22T03:47:41;10.70;;;0.40;;
1703;SDS011;849;48.780;9.216;2023-04-22T03:50:07;10.77;;;0.30;;
1703;SDS011;849;48.780;9.216;2023-04-22T03:52:33;11.07;;;0.67;;
1703;SDS011;849;48.780;9.216;2023-04-22T03:54:58;11.23;;;1.50;;
1703;SDS011;849;48.780;9.216;2023-04-22T03:57:24;11.03;;;0.40;;
1703;SDS011;849;48.780;9.216;2023-04-22T03:59:50;10.97;;;0.30;;
1703;SDS011;849;48.780;9.216;2023-04-22T04:02:15;11.07;;;0.30;;
1703;SDS011;849;48.780;9.216;2023-04-22T04:04:41;12.20;;;2.77;;
1703;SDS011;849;48.780;9.216;2023-04-22T04:07:07;11.27;;;0.40;;
1703;SDS011;849;48.780;9.216;2023-04-22T04:09:33;14.40;;;1.87;;
1703;SDS011;849;48.780;9.216;2023-04-22T04:11:58;11.37;;;0.40;;
1703;SDS011;849;48.780;9.216;2023-04-22T04:14:25;11.40;;;0.40;;
1703;SDS011;849;48.780;9.216;2023-04-22T04:16:50;11.37;;;0.40;;
1703;SDS011;849;48.780;9.216;2023-04-22T04:19:16;11.33;;;0.40;;
1703;SDS011;849;48.780;9.216;2023-04-22T04:21:42;11.40;;;0.70;;
1703;SDS011;849;48.780;9.216;2023-04-22T04:24:07;11.43;;;0.50;;
1703;SDS011;849;48.780;9.216;2023-04-22T04:26:33;11.37;;;0.40;;
1703;SDS011;849;48.780;9.216;2023-04-22T04:28:59;11.37;;;0.40;;
1703;SDS011;849;48.780;9.216;2023-04-22T04:31:27;11.37;;;0.40;;
1703;SDS011;849;48.780;9.216;2023-04-22T04:33:53;11.37;;;0.30;;
1703;SDS011;849;48.780;9.216;2023-04-22T04:36:21;11.30;;;0.30;;
1703;SDS011;849;48.780;9.216;2023-04-22T04:38:50;11.30;;;0.40;;
1703;SDS011;849;48.780;9.216;2023-04-22T04:41:16;11.27;;;0.40;;
1703;SDS011;849;48.780;9.216;2023-04-22T04:43:45;11.27;;;0.40;;
1703;SDS011;849;48.780;9.216;2023-04-22T04:46:12;11.27;;;0.40;;
1703;SDS011;849;48.780;9.216;2023-04-22T04:48:39;11.23;;;0.40;;
1703;SDS011;849;48.780;9.216;2023-04-22T04:51:06;11.27;;;0.40;;
1703;SDS011;849;48.780;9.216;2023-04-22T04:53:32;11.23;;;0.40;;
1703;SDS011;849;48.780;9.216;2023-04-22T04:55:58;11.27;;;0.40;;
1703;SDS011;849;48.780;9.216;2023-04-22T04:58:24;11.37;;;0.40;;
1703;SDS011;849;48.780;9.216;2023-04-22T05:00:49;11.33;;;0.30;;
1703;SDS011;849;48.780;9.216;2023-04-22T05:03:15;11.23;;;0.40;;
1703;SDS011;849;48.780;9.216;2023-04-22T05:05:41;12.00;;;2.60;;
1703;SDS011;849;48.780;9.216;2023-04-22T05:08:07;11.37;;;0.40;;
1703;SDS011;849;48.780;9.216;2023-04-22T05:10:32;11.33;;;0.40;;
1703;SDS011;849;48.780;9.216;2023-04-22T05:12:58;11.37;;;0.40;;
1703;SDS011;849;48.780;9.216;2023-04-22T05:15:24;11.50;;;0.40;;
1703;SDS011;849;48.780;9.216;2023-04-22T05:17:50;11.63;;;0.40;;
1703;SDS011;849;48.780;9.216;2023-04-22T05:20:15;11.73;;;0.37;;
1703;SDS011;849;48.780;9.216;2023-04-22T05:22:41;11.73;;;0.40;;
1703;SDS011;849;48.780;9.216;2023-04-22T05:25:09;11.80;;;0.40;;
1703;SDS011;849;48.780;9.216;2023-04-22T05:27:34;11.80;;;0.30;;
1703;SDS011;849;48.780;9.216;2023-04-22T05:30:00;11.83;;;0.50;;
1703;SDS011;849;48.780;9.216;2023-04-22T05:32:26;11.83;;;0.40;;
1703;SDS011;849;48.780;9.216;2023-04-22T05:34:51;11.93;;;0.40;;
1703;SDS011;849;48.780;9.216;2023-04-22T05:37:17;12.67;;;2.33;;
1703;SDS011;849;48.780;9.216;2023-04-22T05:39:43;11.93;;;0.40;;
1703;SDS011;849;48.780;9.216;2023-04-22T05:42:08;11.97;;;0.40;;
1703;SDS011;849;48.780;9.216;2023-04-22T05:44:34;12.03;;;0.30;;
1703;SDS011;849;48.780;9.216;2023-04-22T05:47:00;12.30;;;0.83;;
1703;SDS011;849;48.780;9.216;2023-04-22T05:49:26;11.97;;;0.40;;
1703;SDS011;849;48.780;9.216;2023-04-22T05:51:51;11.93;;;0.40;;
1703;SDS011;849;48.780;9.216;2023-04-22T05:54:17;11.97;;;0.40;;
1703;SDS011;849;48.780;9.216;2023-04-22T05:56:42;12.03;;;0.40;;
1703;SDS011;849;48.780;9.216;2023-04-22T05:59:08;11.97;;;0.40;;
1703;SDS011;849;48.780;9.216;2023-04-22T06:01:37;11.97;;;0.40;;
1703;SDS011;849;48.780;9.216;2023-04-22T06:04:03;11.93;;;0.40;;
1703;SDS011;849;48.780;9.216;2023-04-22T06:06:33;12.00;;;0.40;;
1703;SDS011;849;48.780;9.216;2023-04-22T06:08:59;12.07;;;0.40;;
1703;SDS011;849;48.780;9.216;2023-04-22T06:11:25;12.07;;;0.40;;
1703;SDS011;849;48.780;9.216;2023-04-22T06:13:52;12.17;;;0.40;;
1703;SDS011;849;48.780;9.216;2023-04-22T06:16:18;12.33;;;0.40;;
1703;SDS011;849;48.780;9.216;2023-04-22T06:18:44;12.23;;;0.43;;
1703;SDS011;849;48.780;9.216;2023-04-22T06:21:10;12.27;;;0.40;;
1703;SDS011;849;48.780;9.216;2023-04-22T06:23:35;12.17;;;0.40;;
1703;SDS011;849;48.780;9.216;2023-04-22T06:26:01;11.97;;;0.37;;
1703;SDS011;849;48.780;9.216;2023-04-22T06:28:27;13.83;;;2.30;;
1703;SDS011;849;48.780;9.216;2023-04-22T06:30:53;11.93;;;0.40;;
1703;SDS011;849;48.780;9.216;2023-04-22T06:33:18;11.87;;;0.40;;
1703;SDS011;849;48.780;9.216;2023-04-22T06:35:44;11.87;;;0.50;;
1703;SDS011;849;48.780;9.216;2023-04-22T06:38:09;11.87;;;0.40;;
1703;SDS011;849;48.780;9.216;2023-04-22T06:40:35;11.87;;;0.40;;
1703;SDS011;849;48.780;9.216;2023-04-22T06:43:01;11.83;;;0.40;;
1703;SDS011;849;48.780;9.216;2023-04-22T06:45:26;11.77;;;0.40;;
1703;SDS011;849;48.780;9.216;2023-04-22T06:47:52;11.73;;;0.40;;
1703;SDS011;849;48.780;9.216;2023-04-22T06:50:18;11.67;;;0.40;;
1703;SDS011;849;48.780;9.216;2023-04-22T06:52:44;11.43;;;0.40;;
1703;SDS011;849;48.780;9.216;2023-04-22T06:55:10;11.43;;;0.40;;
1703;SDS011;849;48.780;9.216;2023-04-22T06:57:35;11.53;;;1.07;;
1703;SDS011;849;48.780;9.216;2023-04-22T07:00:02;11.33;;;0.40;;
1703;SDS011;849;48.780;9.216;2023-04-22T07:02:29;11.37;;;0.40;;
1703;SDS011;849;48.780;9.216;2023-04-22T07:04:54;11.30;;;0.40;;
1703;SDS011;849;48.780;9.216;2023-04-22T07:07:20;11.27;;;0.40;;
1703;SDS011;849;48.780;9.216;2023-04-22T07:09:45;12.00;;;2.50;;
1703;SDS011;849;48.780;9.216;2023-04-22T07:12:11;11.23;;;0.40;;
1703;SDS011;849;48.780;9.216;2023-04-22T07:14:37;11.27;;;0.40;;
1703;SDS011;849;48.780;9.216;2023-04-22T07:17:07;11.37;;;0.40;;
1703;SDS011;849;48.780;9.216;2023-04-22T07:19:33;11.33;;;0.30;;
1703;SDS011;849;48.780;9.216;2023-04-22T07:21:58;11.37;;;0.40;;
1703;SDS011;849;48.780;9.216;2023-04-22T07:24:24;11.43;;;0.40;;
1703;SDS011;849;48.780;9.216;2023-04-22T07:26:50;11.43;;;0.40;;
1703;SDS011;849;48.780;9.216;2023-04-22T07:29:15;11.43;;;0.40;;
1703;SDS011;849;48.780;9.216;2023-04-22T07:31:41;11.43;;;0.40;;
1703;SDS011;849;48.780;9.216;2023-04-22T07:34:07;11.33;;;0.30;;
1703;SDS011;849;48.780;9.216;2023-04-22T07:36:34;11.27;;;0.40;;
1703;SDS011;849;48.780;9.216;2023-04-22T07:39:00;11.33;;;0.40;;
1703;SDS011;849;48.780;9.216;2023-04-22T07:41:26;11.23;;;0.40;;
1703;SDS011;849;48.780;9.216;2023-04-22T07:43:51;11.07;;;0.40;;
1703;SDS011;849;48.780;9.216;2023-04-22T07:46:17;13.50;;;3.77;;
1703;SDS011;849;48.780;9.216;2023-04-22T07:48:43;11.13;;;0.50;;
1703;SDS011;849;48.780;9.216;2023-04-22T07:51:08;11.03;;;0.40;;
1703;SDS011;849;48.780;9.216;2023-04-22T07:53:34;10.83;;;0.40;;
1703;SDS011;849;48.780;9.216;2023-04-22T07:56:00;10.87;;;0.40;;
1703;SDS011;849;48.780;9.216;2023-04-22T07:58:27;11.03;;;0.40;;
1703;SDS011;849;48.780;9.216;2023-04-22T08:00:52;10.83;;;0.40;;
1703;SDS011;849;48.780;9.216;2023-04-22T08:03:18;10.73;;;0.40;;
1703;SDS011;849;48.780;9.216;2023-04-22T08:05:43;10.23;;;0.50;;
1703;SDS011;849;48.780;9.216;2023-04-22T08:08:09;9.93;;;0.57;;
1703;SDS011;849;48.780;9.216;2023-04-22T08:10:35;9.73;;;0.40;;
1703;SDS011;849;48.780;9.216;2023-04-22T08:13:00;10.00;;;2.97;;
1703;SDS011;849;48.780;9.216;2023-04-22T08:15:26;9.37;;;1.03;;
1703;SDS011;849;48.780;9.216;2023-04-22T08:17:52;8.97;;;0.40;;
1703;SDS011;849;48.780;9.216;2023-04-22T08:20:18;8.77;;;0.40;;
1703;SDS011;849;48.780;9.216;2023-04-22T08:22:44;8.53;;;0.33;;
1703;SDS011;849;48.780;9.216;2023-04-22T08:25:09;9.43;;;1.27;;
1703;SDS011;849;48.780;9.216;2023-04-22T08:27:36;8.37;;;0.30;;
1703;SDS011;849;48.780;9.216;2023-04-22T08:30:02;8.37;;;0.63;;
1703;SDS011;849;48.780;9.216;2023-04-22T08:32:29;8.10;;;0.40;;
1703;SDS011;849;48.780;9.216;2023-04-22T08:34:54;7.87;;;0.30;;
1703;SDS011;849;48.780;9.216;2023-04-22T08:37:20;7.73;;;0.40;;
1703;SDS011;849;48.780;9.216;2023-04-22T08:39:45;7.90;;;0.30;;
1703;SDS011;849;48.780;9.216;2023-04-22T08:42:11;7.30;;;0.30;;
1703;SDS011;849;48.780;9.216;2023-04-22T08:44:38;7.27;;;0.30;;
1703;SDS011;849;48.780;9.216;2023-04-22T08:47:04;6.43;;;0.50;;
1703;SDS011;849;48.780;9.216;2023-04-22T08:49:30;6.40;;;0.30;;
1703;SDS011;849;48.780;9.216;2023-04-22T08:51:56;6.60;;;0.60;;
1703;SDS011;849;48.780;9.216;2023-04-22T08:54:24;6.27;;;0.30;;
1703;SDS011;849;48.780;9.216;2023-04-22T08:56:50;6.27;;;0.30;;
1703;SDS011;849;48.780;9.216;2023-04-22T08:59:16;6.57;;;0.87;;
1703;SDS011;849;48.780;9.216;2023-04-22T09:01:43;6.13;;;0.30;;
1703;SDS011;849;48.780;9.216;2023-04-22T09:04:13;5.70;;;0.30;;
1703;SDS011;849;48.780;9.216;2023-04-22T09:06:39;5.55;;;0.30;;
1703;SDS011;849;48.780;9.216;2023-04-22T09:09:05;5.63;;;0.30;;
1703;SDS011;849;48.780;9.216;2023-04-22T09:11:33;5.67;;;0.30;;
1703;SDS011;849;48.780;9.216;2023-04-22T09:14:00;5.80;;;0.30;;
1703;SDS011;849;48.780;9.216;2023-04-22T09:16:28;5.67;;;0.30;;
1703;SDS011;849;48.780;9.216;2023-04-22T09:18:55;5.97;;;0.70;;
1703;SDS011;849;48.780;9.216;2023-04-22T09:21:24;6.00;;;0.30;;
1703;SDS011;849;48.780;9.216;2023-04-22T09:23:52;5.47;;;0.40;;
1703;SDS011;849;48.780;9.216;2023-04-22T09:26:19;5.33;;;0.90;;
1703;SDS011;849;48.780;9.216;2023-04-22T09:28:49;5.20;;;0.30;;
1703;SDS011;849;48.780;9.216;2023-04-22T09:31:16;5.33;;;0.30;;
1703;SDS011;849;48.780;9.216;2023-04-22T09:33:45;5.23;;;0.30;;
1703;SDS011;849;48.780;9.216;2023-04-22T09:36:15;5.20;;;0.30;;
1703;SDS011;849;48.780;9.216;2023-04-22T09:38:49;5.10;;;0.30;;
1703;SDS011;849;48.780;9.216;2023-04-22T09:41:16;5.10;;;0.30;;
1703;SDS011;849;48.780;9.216;2023-04-22T09:43:41;5.13;;;0.30;;
1703;SDS011;849;48.780;9.216;2023-04-22T09:46:08;4.93;;;0.30;;
1703;SDS011;849;48.780;9.216;2023-04-22T09:48:37;4.90;;;0.30;;
1703;SDS011;849;48.780;9.216;2023-04-22T09:51:13;4.90;;;0.30;;
1703;SDS011;849;48.780;9.216;2023-04-22T09:53:43;7.00;;;0.30;;
1703;SDS011;849;48.780;9.216;2023-04-22T09:56:09;7.07;;;0.30;;
1703;SDS011;849;48.780;9.216;2023-04-22T09:58:38;7.13;;;0.30;;
1703;SDS011;849;48.780;9.216;2023-04-22T10:01:04;7.10;;;0.50;;
1703;SDS011;849;48.780;9.216;2023-04-22T10:03:31;7.20;;;0.30;;
1703;SDS011;849;48.780;9.216;2023-04-22T10:05:57;7.07;;;0.30;;
1703;SDS011;849;48.780;9.216;2023-04-22T10:08:23;7.17;;;0.30;;
1703;SDS011;849;48.780;9.216;2023-04-22T10:10:49;7.17;;;0.30;;
1703;SDS011;849;48.780;9.216;2023-04-22T10:13:14;7.17;;;0.30;;
1703;SDS011;849;48.780;9.216;2023-04-22T10:15:41;7.17;;;0.30;;
1703;SDS011;849;48.780;9.216;2023-04-22T10:18:11;7.23;;;0.40;;
1703;SDS011;849;48.780;9.216;2023-04-22T10:20:39;7.17;;;0.30;;
1703;SDS011;849;48.780;9.216;2023-04-22T10:23:11;7.23;;;0.37;;
1703;SDS011;849;48.780;9.216;2023-04-22T10:25:39;7.37;;;0.63;;
1703;SDS011;849;48.780;9.216;2023-04-22T10:28:09;7.23;;;0.30;;
1703;SDS011;849;48.780;9.216;2023-04-22T10:30:36;7.27;;;0.30;;
1703;SDS011;849;48.780;9.216;2023-04-22T10:39:25;7.07;;;0.30;;
1703;SDS011;849;48.780;9.216;2023-04-22T10:41:27;6.97;;;0.30;;
1703;SDS011;849;48.780;9.216;2023-04-22T10:43:55;7.00;;;0.30;;
1703;SDS011;849;48.780;9.216;2023-04-22T10:49:08;7.00;;;0.30;;
1703;SDS011;849;48.780;9.216;2023-04-22T10:54:07;7.10;;;0.30;;
1703;SDS011;849;48.780;9.216;2023-04-22T10:57:02;7.17;;;0.30;;
1703;SDS011;849;48.780;9.216;2023-04-22T10:59:33;7.33;;;0.40;;
1703;SDS011;849;48.780;9.216;2023-04-22T11:02:07;7.37;;;0.40;;
1703;SDS011;849;48.780;9.216;2023-04-22T11:04:33;7.33;;;0.30;;
1703;SDS011;849;48.780;9.216;2023-04-22T11:09:42;7.33;;;0.30;;
1703;SDS011;849;48.780;9.216;2023-04-22T11:15:06;7.37;;;0.50;;
1703;SDS011;849;48.780;9.216;2023-04-22T11:17:35;7.43;;;0.40;;
1703;SDS011;849;48.780;9.216;2023-04-22T11:20:02;7.37;;;0.30;;
1703;SDS011;849;48.780;9.216;2023-04-22T11:22:33;7.37;;;0.30;;
1703;SDS011;849;48.780;9.216;2023-04-22T11:25:00;7.37;;;0.30;;
1703;SDS011;849;48.780;9.216;2023-04-22T11:27:28;7.33;;;0.30;;
1703;SDS011;849;48.780;9.216;2023-04-22T11:30:13;7.30;;;0.40;;
1703;SDS011;849;48.780;9.216;2023-04-22T11:32:45;7.30;;;0.30;;
1703;SDS011;849;48.780;9.216;2023-04-22T11:35:19;7.20;;;0.50;;
1703;SDS011;849;48.780;9.216;2023-04-22T11:37:54;7.43;;;0.97;;
1703;SDS011;849;48.780;9.216;2023-04-22T11:40:43;7.53;;;0.30;;
1703;SDS011;849;48.780;9.216;2023-04-22T11:43:09;7.43;;;0.30;;
1703;SDS011;849;48.780;9.216;2023-04-22T11:45:36;7.43;;;0.30;;
1703;SDS011;849;48.780;9.216;2023-04-22T11:48:03;7.67;;;0.50;;
1703;SDS011;849;48.780;9.216;2023-04-22T11:50:32;7.50;;;0.40;;
1703;SDS011;849;48.780;9.216;2023-04-22T11:53:15;7.43;;;0.53;;
1703;SDS011;849;48.780;9.216;2023-04-22T11:55:42;7.40;;;0.40;;
1703;SDS011;849;48.780;9.216;2023-04-22T12:03:14;7.40;;;0.40;;
1703;SDS011;849;48.780;9.216;2023-04-22T12:10:42;6.00;;;0.60;;
1703;SDS011;849;48.780;9.216;2023-04-22T12:13:16;6.20;;;0.93;;
1703;SDS011;849;48.780;9.216;2023-04-22T12:15:45;6.07;;;0.30;;
1703;SDS011;849;48.780;9.216;2023-04-22T12:18:11;5.93;;;0.30;;
1703;SDS011;849;48.780;9.216;2023-04-22T12:20:40;5.80;;;0.30;;
1703;SDS011;849;48.780;9.216;2023-04-22T12:23:13;5.80;;;0.50;;
1703;SDS011;849;48.780;9.216;2023-04-22T12:25:39;5.80;;;0.40;;
1703;SDS011;849;48.780;9.216;2023-04-22T12:28:06;6.00;;;0.60;;
1703;SDS011;849;48.780;9.216;2023-04-22T12:30:31;5.87;;;0.30;;
1703;SDS011;849;48.780;9.216;2023-04-22T12:32:57;5.80;;;0.30;;
1703;SDS011;849;48.780;9.216;2023-04-22T12:35:22;5.90;;;0.50;;
1703;SDS011;849;48.780;9.216;2023-04-22T12:37:48;5.83;;;0.40;;
1703;SDS011;849;48.780;9.216;2023-04-22T12:40:14;5.67;;;0.30;;
1703;SDS011;849;48.780;9.216;2023-04-22T12:42:39;5.90;;;0.40;;
1703;SDS011;849;48.780;9.216;2023-04-22T12:45:05;5.90;;;0.87;;
1703;SDS011;849;48.780;9.216;2023-04-22T12:47:32;5.77;;;0.30;;
1703;SDS011;849;48.780;9.216;2023-04-22T12:49:58;5.83;;;0.50;;
1703;SDS011;849;48.780;9.216;2023-04-22T12:52:25;5.80;;;0.40;;
1703;SDS011;849;48.780;9.216;2023-04-22T12:54:51;6.10;;;0.90;;
1703;SDS011;849;48.780;9.216;2023-04-22T12:57:17;5.57;;;0.30;;
1703;SDS011;849;48.780;9.216;2023-04-22T12:59:42;5.77;;;0.47;;
1703;SDS011;849;48.780;9.216;2023-04-22T13:02:11;5.60;;;0.30;;
1703;SDS011;849;48.780;9.216;2023-04-22T13:04:36;5.70;;;0.40;;
1703;SDS011;849;48.780;9.216;2023-04-22T13:07:02;5.73;;;0.30;;
1703;SDS011;849;48.780;9.216;2023-04-22T13:09:28;5.70;;;0.30;;
1703;SDS011;849;48.780;9.216;2023-04-22T13:11:53;5.80;;;0.40;;
1703;SDS011;849;48.780;9.216;2023-04-22T13:14:19;5.70;;;0.30;;
1703;SDS011;849;48.780;9.216;2023-04-22T13:16:45;5.70;;;0.30;;
1703;SDS011;849;48.780;9.216;2023-04-22T13:19:11;5.67;;;0.30;;
1703;SDS011;849;48.780;9.216;2023-04-22T13:21:37;5.77;;;0.30;;
1703;SDS011;849;48.780;9.216;2023-04-22T13:24:02;5.73;;;0.30;;
1703;SDS011;849;48.780;9.216;2023-04-22T13:26:28;5.77;;;0.30;;
1703;SDS011;849;48.780;9.216;2023-04-22T13:28:54;5.70;;;0.30;;
1703;SDS011;849;48.780;9.216;2023-04-22T13:31:20;5.80;;;0.80;;
1703;SDS011;849;48.780;9.216;2023-04-22T13:33:46;5.63;;;0.40;;
1703;SDS011;849;48.780;9.216;2023-04-22T13:36:11;5.70;;;0.50;;
1703;SDS011;849;48.780;9.216;2023-04-22T13:38:37;6.10;;;1.40;;
1703;SDS011;849;48.780;9.216;2023-04-22T13:41:03;7.13;;;1.60;;
1703;SDS011;849;48.780;9.216;2023-04-22T13:43:29;5.50;;;0.30;;
1703;SDS011;849;48.780;9.216;2023-04-22T13:45:54;5.80;;;0.60;;
1703;SDS011;849;48.780;9.216;2023-04-22T13:48:20;5.53;;;0.30;;
1703;SDS011;849;48.780;9.216;2023-04-22T13:50:46;5.70;;;0.40;;
1703;SDS011;849;48.780;9.216;2023-04-22T13:53:12;5.70;;;0.30;;
1703;SDS011;849;48.780;9.216;2023-04-22T13:55:38;5.57;;;0.30;;
1703;SDS011;849;48.780;9.216;2023-04-22T13:58:04;5.60;;;0.40;;
1703;SDS011;849;48.780;9.216;2023-04-22T14:00:31;5.70;;;0.40;;
1703;SDS011;849;48.780;9.216;2023-04-22T14:02:57;5.80;;;0.67;;
1703;SDS011;849;48.780;9.216;2023-04-22T14:05:23;5.90;;;0.80;;
1703;SDS011;849;48.780;9.216;2023-04-22T14:07:48;5.80;;;0.73;;
1703;SDS011;849;48.780;9.216;2023-04-22T14:10:14;8.40;;;0.53;;
1703;SDS011;849;48.780;9.216;2023-04-22T14:12:44;5.70;;;0.50;;
1703;SDS011;849;48.780;9.216;2023-04-22T14:15:10;5.57;;;0.40;;
1703;SDS011;849;48.780;9.216;2023-04-22T14:17:36;5.57;;;0.50;;
1703;SDS011;849;48.780;9.216;2023-04-22T14:20:02;6.40;;;1.13;;
1703;SDS011;849;48.780;9.216;2023-04-22T14:22:29;5.50;;;0.40;;
1703;SDS011;849;48.780;9.216;2023-04-22T14:24:55;5.50;;;0.30;;
1703;SDS011;849;48.780;9.216;2023-04-22T14:27:20;5.53;;;0.30;;
1703;SDS011;849;48.780;9.216;2023-04-22T14:29:46;5.63;;;0.30;;
1703;SDS011;849;48.780;9.216;2023-04-22T14:32:16;5.67;;;0.30;;
1703;SDS011;849;48.780;9.216;2023-04-22T14:34:45;5.60;;;0.30;;
1703;SDS011;849;48.780;9.216;2023-04-22T14:37:11;5.60;;;0.30;;
1703;SDS011;849;48.780;9.216;2023-04-22T14:39:37;5.57;;;0.30;;
1703;SDS011;849;48.780;9.216;2023-04-22T14:42:03;6.00;;;0.70;;
1703;SDS011;849;48.780;9.216;2023-04-22T14:44:29;5.70;;;0.80;;
1703;SDS011;849;48.780;9.216;2023-04-22T14:46:55;5.67;;;0.47;;
1703;SDS011;849;48.780;9.216;2023-04-22T14:49:21;5.30;;;0.30;;
1703;SDS011;849;48.780;9.216;2023-04-22T14:51:46;5.40;;;0.30;;
1703;SDS011;849;48.780;9.216;2023-04-22T14:54:13;5.43;;;0.40;;
1703;SDS011;849;48.780;9.216;2023-04-22T14:56:38;5.40;;;0.40;;
1703;SDS011;849;48.780;9.216;2023-04-22T14:59:04;5.53;;;0.30;;
1703;SDS011;849;48.780;9.216;2023-04-22T15:01:30;5.50;;;0.30;;
1703;SDS011;849;48.780;9.216;2023-04-22T15:03:56;6.83;;;0.93;;
1703;SDS011;849;48.780;9.216;2023-04-22T15:06:22;5.20;;;0.60;;
1703;SDS011;849;48.780;9.216;2023-04-22T15:08:48;5.20;;;0.30;;
1703;SDS011;849;48.780;9.216;2023-04-22T15:11:15;5.13;;;0.50;;
1703;SDS011;849;48.780;9.216;2023-04-22T15:13:41;5.30;;;0.83;;
1703;SDS011;849;48.780;9.216;2023-04-22T15:16:07;5.13;;;0.40;;
1703;SDS011;849;48.780;9.216;2023-04-22T15:18:33;4.90;;;0.30;;
1703;SDS011;849;48.780;9.216;2023-04-22T15:20:58;4.93;;;0.30;;
1703;SDS011;849;48.780;9.216;2023-04-22T15:23:24;5.00;;;0.30;;
1703;SDS011;849;48.780;9.216;2023-04-22T15:25:50;5.00;;;0.40;;
1703;SDS011;849;48.780;9.216;2023-04-22T15:28:15;5.00;;;0.30;;
1703;SDS011;849;48.780;9.216;2023-04-22T15:30:41;6.03;;;0.77;;
1703;SDS011;849;48.780;9.216;2023-04-22T15:33:07;5.00;;;0.30;;
1703;SDS011;849;48.780;9.216;2023-04-22T15:35:33;5.10;;;0.30;;
1703;SDS011;849;48.780;9.216;2023-04-22T15:37:59;5.07;;;0.30;;
1703;SDS011;849;48.780;9.216;2023-04-22T15:40:26;5.07;;;0.40;;
1703;SDS011;849;48.780;9.216;2023-04-22T15:42:52;5.00;;;0.30;;
1703;SDS011;849;48.780;9.216;2023-04-22T15:45:18;5.03;;;0.30;;
1703;SDS011;849;48.780;9.216;2023-04-22T15:47:44;4.90;;;0.30;;